Main page
METAR-TAF:

METAR-TAF

Airports :

Aurillac, France

Aurillac – Tronquières Airport

latitude: 44-53N, longitude: 002-25E, elevation: 639 m

Current weather observation

The report was made 44 minutes ago, at 06:30 UTC
Wind 3 kt from the North/Northwest
Temperature 0°C
Humidity 100%
Pressure 1023 hPa
Visibility 10 km or more
no clouds below 1500 m and no cumulonimbus

METAR: LFLW 180630Z AUTO 33003KT CAVOK 00/00 Q1023 TEMPO 0500 BCFG BKN003

Time: 08:14 (07:14 UTC)

Forecast

The report was made 2 hours and 14 minutes ago, at 05:00 UTC
Forecast valid from 18 at 06 UTC to 18 at 15 UTC
Wind 6 kt from the North/Northwest
Visibility 10 km or more
Few clouds at a height of 1500 ft
Probability 40% :
Temporary
from 18 at 06 UTC to 18 at 09 UTC
Visibility: 0500 m
Broken clouds at a height of 300 ft
patches of fog
Becoming
from 18 at 12 UTC to 18 at 15 UTC
Visibility 10 km or more
no clouds below 1500 m and no cumulonimbus

TAF: LFLW 180500Z 1806/1815 33006KT 9999 FEW015 PROB40 TEMPO 1806/1809 0500 BCFG BKN003 BECMG 1812/1815 CAVOK

Weather observations and forecasts of more than 4000 airports (METAR and TAF reports).

The available stations are represented by yellow and red dots on the map.

Hover mouse over dot to see the name of the station.

Then click to see weather observations and forecasts.

To change the map : click on the green buttons with a black cross to zoom in, on the green button with a dash to zoom out, or on the green arrows for adjacent maps.


METAR-TAF: